createdAt,value
2022-12-04T00:01:14.422Z,21.48
2022-12-04T00:03:41.758Z,23.35
2022-12-04T00:06:19.547Z,20.80
2022-12-04T00:08:47.690Z,21.60
2022-12-04T00:11:16.599Z,23.40
2022-12-04T00:13:43.940Z,22.88
2022-12-04T00:16:16.364Z,21.40
2022-12-04T00:18:43.812Z,21.58
2022-12-04T00:21:11.980Z,23.38
2022-12-04T00:23:40.013Z,23.13
2022-12-04T00:26:15.073Z,21.88
2022-12-04T00:28:43.028Z,22.70
2022-12-04T00:31:11.679Z,23.17
2022-12-04T00:33:39.183Z,22.90
2022-12-04T00:36:08.133Z,22.33
2022-12-04T00:38:35.981Z,23.17
2022-12-04T00:41:03.302Z,21.77
2022-12-04T00:43:31.462Z,21.98
2022-12-04T00:45:59.064Z,22.58
2022-12-04T00:48:26.501Z,24.70
2022-12-04T00:50:58.371Z,22.98
2022-12-04T00:53:25.680Z,23.00
2022-12-04T00:55:53.018Z,24.70
2022-12-04T00:58:20.311Z,24.17
2022-12-04T01:00:47.695Z,23.88
2022-12-04T01:03:15.077Z,22.25
2022-12-04T01:05:43.588Z,24.20
2022-12-04T01:08:11.712Z,24.20
2022-12-04T01:10:42.761Z,24.17
2022-12-04T01:13:10.355Z,24.52
2022-12-04T01:15:41.559Z,25.20
2022-12-04T01:18:09.196Z,24.17
2022-12-04T01:20:36.509Z,24.45
2022-12-04T01:23:03.879Z,25.33
2022-12-04T01:25:31.391Z,24.92
2022-12-04T01:27:58.778Z,23.40
2022-12-04T01:30:26.074Z,25.73
2022-12-04T01:32:53.297Z,25.25
2022-12-04T01:35:20.563Z,24.05
2022-12-04T01:37:47.829Z,24.33
2022-12-04T01:40:17.099Z,26.52
2022-12-04T01:42:44.430Z,24.97
2022-12-04T01:45:29.923Z,24.63
2022-12-04T01:47:59.304Z,26.50
2022-12-04T01:50:26.584Z,24.90
2022-12-04T01:52:53.919Z,23.83
2022-12-04T01:55:21.193Z,24.30
2022-12-04T01:57:49.079Z,24.98
2022-12-04T02:00:16.825Z,25.02
2022-12-04T02:02:46.408Z,24.73
2022-12-04T02:05:15.468Z,23.42
2022-12-04T02:07:45.545Z,25.83
2022-12-04T02:10:13.866Z,24.95
2022-12-04T02:12:59.462Z,24.70
2022-12-04T02:15:40.042Z,24.70
2022-12-04T02:18:15.179Z,24.27
2022-12-04T02:21:00.966Z,24.95
2022-12-04T02:23:46.234Z,23.92
2022-12-04T02:26:32.241Z,24.52
2022-12-04T02:29:02.602Z,25.20
2022-12-04T02:31:40.179Z,24.35
2022-12-04T02:34:14.796Z,24.67
2022-12-04T02:36:45.561Z,24.45
2022-12-04T02:39:12.801Z,25.10
2022-12-04T02:41:45.580Z,25.17
2022-12-04T02:44:15.149Z,26.95
2022-12-04T02:46:44.324Z,25.60
2022-12-04T02:49:21.027Z,24.75
2022-12-04T02:51:49.477Z,25.52
2022-12-04T02:54:21.163Z,24.63
2022-12-04T02:56:51.160Z,23.58
2022-12-04T02:59:23.518Z,25.63
2022-12-04T03:01:52.793Z,25.10
2022-12-04T03:04:20.049Z,25.02
2022-12-04T03:06:49.853Z,24.58
2022-12-04T03:09:21.059Z,26.00
2022-12-04T03:11:53.836Z,24.90
2022-12-04T03:14:31.999Z,24.20
2022-12-04T03:17:03.033Z,24.50
2022-12-04T03:19:34.843Z,26.88
2022-12-04T03:22:05.065Z,27.15
2022-12-04T03:24:37.238Z,24.63
2022-12-04T03:27:13.966Z,26.80
2022-12-04T03:29:47.265Z,23.85
2022-12-04T03:32:33.493Z,24.48
2022-12-04T03:35:06.217Z,24.20
2022-12-04T03:37:45.718Z,25.33
2022-12-04T03:40:31.852Z,23.80
2022-12-04T03:43:02.636Z,25.08
2022-12-04T03:45:35.298Z,26.25
2022-12-04T03:48:11.918Z,25.75
2022-12-04T03:50:40.686Z,25.67
2022-12-04T03:53:11.948Z,25.20
2022-12-04T03:55:44.631Z,23.92
2022-12-04T03:58:14.659Z,25.45
2022-12-04T04:00:43.169Z,26.02
2022-12-04T04:03:13.479Z,25.73
2022-12-04T04:05:43.558Z,26.15
2022-12-04T04:08:27.805Z,25.27
2022-12-04T04:11:01.421Z,26.05
2022-12-04T04:13:53.472Z,25.08
2022-12-04T04:16:40.987Z,25.43
2022-12-04T04:19:27.828Z,24.98
2022-12-04T04:22:14.542Z,24.30
2022-12-04T04:24:46.898Z,25.60
2022-12-04T04:27:14.273Z,25.13
2022-12-04T04:29:43.336Z,25.93
2022-12-04T04:32:21.675Z,25.15
2022-12-04T04:34:48.922Z,25.90
2022-12-04T04:37:31.278Z,26.33
2022-12-04T04:39:58.574Z,24.30
2022-12-04T04:42:28.754Z,25.47
2022-12-04T04:45:07.119Z,25.35
2022-12-04T04:47:39.576Z,25.85
2022-12-04T04:50:08.981Z,25.65
2022-12-04T04:52:37.015Z,24.13
2022-12-04T04:55:04.869Z,27.50
2022-12-04T04:57:33.930Z,24.88
2022-12-04T05:00:01.236Z,25.52
2022-12-04T05:02:28.661Z,26.25
2022-12-04T05:04:56.233Z,26.38
2022-12-04T05:07:23.604Z,24.17
2022-12-04T05:09:50.920Z,24.13
2022-12-04T05:12:18.188Z,26.38
2022-12-04T05:14:47.104Z,24.10
2022-12-04T05:17:14.509Z,24.55
2022-12-04T05:19:54.867Z,24.93
2022-12-04T05:22:30.508Z,25.90
2022-12-04T05:24:58.173Z,25.02
2022-12-04T05:27:26.169Z,26.23
2022-12-04T05:29:54.629Z,25.92
2022-12-04T05:32:22.807Z,25.40
2022-12-04T05:34:50.504Z,24.63
2022-12-04T05:37:18.133Z,26.60
2022-12-04T05:39:45.477Z,26.95
2022-12-04T05:42:13.320Z,26.05
2022-12-04T05:44:40.550Z,25.10
2022-12-04T05:47:08.439Z,25.15
2022-12-04T05:49:36.077Z,25.05
2022-12-04T05:52:04.120Z,25.60
2022-12-04T05:54:31.375Z,26.20
2022-12-04T05:56:59.891Z,26.93
2022-12-04T05:59:27.186Z,25.55
2022-12-04T06:01:54.509Z,24.52
2022-12-04T06:04:21.936Z,26.70
2022-12-04T06:06:49.305Z,25.45
2022-12-04T06:09:16.645Z,25.43
2022-12-04T06:11:43.981Z,26.60
2022-12-04T06:14:12.826Z,25.08
2022-12-04T06:16:42.004Z,26.38
2022-12-04T06:19:11.237Z,27.45
2022-12-04T06:21:40.377Z,25.67
2022-12-04T06:24:08.729Z,25.08
2022-12-04T06:26:36.064Z,27.50
2022-12-04T06:29:03.410Z,25.30
2022-12-04T06:31:30.848Z,24.27
2022-12-04T06:33:58.939Z,24.87
2022-12-04T06:36:26.673Z,24.13
2022-12-04T06:38:55.389Z,24.65
2022-12-04T06:41:22.932Z,26.08
2022-12-04T06:43:51.738Z,23.92
2022-12-04T06:46:23.192Z,25.40
2022-12-04T06:48:50.910Z,25.08
2022-12-04T06:51:37.399Z,24.95
2022-12-04T06:54:04.905Z,25.55
2022-12-04T06:56:33.616Z,24.67
2022-12-04T06:59:01.502Z,24.63
2022-12-04T07:01:30.004Z,27.13
2022-12-04T07:03:57.981Z,24.38
2022-12-04T07:06:26.791Z,24.50
2022-12-04T07:09:26.633Z,25.83
2022-12-04T07:11:55.076Z,26.30
2022-12-04T07:14:22.447Z,23.70
2022-12-04T07:16:49.846Z,25.10
2022-12-04T07:19:17.325Z,23.42
2022-12-04T07:21:44.823Z,26.08
2022-12-04T07:24:16.760Z,24.70
2022-12-04T07:26:44.296Z,24.20
2022-12-04T07:29:11.776Z,23.55
2022-12-04T07:31:39.222Z,23.85
2022-12-04T07:34:06.663Z,23.63
2022-12-04T07:36:34.120Z,29.80
2022-12-04T07:39:01.585Z,23.85
2022-12-04T07:41:29.124Z,22.63
2022-12-04T07:43:56.422Z,23.88
2022-12-04T07:46:25.591Z,23.98
2022-12-04T07:48:53.222Z,24.57
2022-12-04T07:51:22.022Z,23.60
2022-12-04T07:53:49.830Z,22.33
2022-12-04T07:56:17.617Z,23.50
2022-12-04T07:58:45.126Z,24.88
2022-12-04T08:01:15.756Z,23.55
2022-12-04T08:03:47.939Z,25.40
2022-12-04T08:06:15.654Z,23.55
2022-12-04T08:08:42.913Z,23.85
2022-12-04T08:11:13.136Z,24.48
2022-12-04T08:13:40.449Z,24.65
2022-12-04T08:16:08.783Z,24.05
2022-12-04T08:18:36.258Z,23.60
2022-12-04T08:21:07.386Z,25.20
2022-12-04T08:23:34.814Z,23.42
2022-12-04T08:26:02.271Z,24.60
2022-12-04T08:28:29.769Z,24.52
2022-12-04T08:31:02.558Z,22.27
2022-12-04T08:33:30.038Z,23.33
2022-12-04T08:35:57.409Z,24.33
2022-12-04T08:38:24.741Z,24.20
2022-12-04T08:40:52.085Z,23.25
2022-12-04T08:43:19.469Z,24.27
2022-12-04T08:45:55.022Z,24.80
2022-12-04T08:48:22.452Z,24.13
2022-12-04T08:50:49.758Z,24.35
2022-12-04T08:53:17.130Z,22.60
2022-12-04T08:55:44.470Z,23.33
2022-12-04T08:58:12.120Z,23.48
2022-12-04T09:00:39.624Z,24.75
2022-12-04T09:03:06.969Z,24.97
2022-12-04T09:05:34.201Z,24.55
2022-12-04T09:08:01.613Z,23.95
2022-12-04T09:10:28.920Z,24.00
2022-12-04T09:12:56.230Z,23.55
2022-12-04T09:15:23.458Z,24.55
2022-12-04T09:17:50.809Z,25.60
2022-12-04T09:20:18.119Z,25.90
2022-12-04T09:23:02.773Z,25.08
2022-12-04T09:25:31.407Z,24.15
2022-12-04T09:27:58.786Z,24.60
2022-12-04T09:30:26.072Z,23.75
2022-12-04T09:32:53.515Z,23.30
2022-12-04T09:35:20.849Z,24.23
2022-12-04T09:37:48.147Z,22.35
2022-12-04T09:40:42.283Z,24.33
2022-12-04T09:43:29.876Z,22.27
2022-12-04T09:46:02.104Z,20.50
2022-12-04T09:48:34.087Z,22.13
2022-12-04T09:51:02.832Z,22.98
2022-12-04T09:53:32.842Z,20.92
2022-12-04T09:56:05.068Z,21.42
2022-12-04T09:58:44.773Z,20.48
2022-12-04T10:01:20.004Z,21.80
2022-12-04T10:03:47.455Z,21.98
2022-12-04T10:06:17.088Z,21.97
2022-12-04T10:08:50.587Z,21.08
2022-12-04T10:11:21.091Z,21.67
2022-12-04T10:13:59.777Z,21.15
2022-12-04T10:16:45.979Z,21.05
2022-12-04T10:19:28.372Z,20.77
2022-12-04T10:22:12.844Z,21.90
2022-12-04T10:24:53.779Z,20.77
2022-12-04T10:27:21.021Z,20.73
2022-12-04T10:29:51.293Z,21.85
2022-12-04T10:32:23.855Z,22.40
2022-12-04T10:34:53.099Z,19.92
2022-12-04T10:37:20.826Z,20.70
2022-12-04T10:39:54.792Z,18.63
2022-12-04T10:42:48.836Z,20.33
2022-12-04T10:45:16.288Z,19.57
2022-12-04T10:47:45.878Z,19.50
2022-12-04T10:50:20.848Z,18.83
2022-12-04T10:52:48.621Z,18.80
2022-12-04T10:55:16.072Z,17.88
2022-12-04T10:57:45.662Z,18.73
2022-12-04T11:00:32.736Z,18.77
2022-12-04T11:03:01.531Z,19.40
2022-12-04T11:05:32.007Z,19.13
2022-12-04T11:08:00.720Z,18.00
2022-12-04T11:10:33.922Z,18.20
2022-12-04T11:13:02.718Z,19.48
2022-12-04T11:15:30.371Z,18.27
2022-12-04T11:18:08.671Z,18.40
2022-12-04T11:20:36.108Z,18.63
2022-12-04T11:23:03.579Z,17.73
2022-12-04T11:25:38.916Z,16.75
2022-12-04T11:28:06.391Z,15.70
2022-12-04T11:30:35.605Z,16.13
2022-12-04T11:33:03.956Z,16.15
2022-12-04T11:35:32.241Z,15.57
2022-12-04T11:37:59.783Z,15.85
2022-12-04T11:40:27.459Z,16.30
2022-12-04T11:43:04.413Z,16.27
2022-12-04T11:45:31.765Z,15.27
2022-12-04T11:48:00.472Z,14.85
2022-12-04T11:50:27.823Z,13.98
2022-12-04T11:53:02.826Z,14.73
2022-12-04T11:55:40.149Z,14.90
2022-12-04T11:58:17.027Z,14.88
2022-12-04T12:00:55.616Z,13.65
2022-12-04T12:03:49.383Z,14.27
2022-12-04T12:06:26.832Z,14.63
2022-12-04T12:09:06.167Z,13.90
2022-12-04T12:11:45.932Z,13.65
2022-12-04T12:14:19.257Z,12.40
2022-12-04T12:19:43.342Z,13.95
2022-12-04T12:22:26.514Z,13.70
2022-12-04T12:25:11.110Z,14.05
2022-12-04T12:27:57.031Z,14.10
2022-12-04T12:30:25.070Z,12.60
2022-12-04T12:33:11.168Z,12.18
2022-12-04T12:35:47.891Z,13.15
2022-12-04T12:38:21.617Z,12.52
2022-12-04T12:40:56.184Z,11.77
2022-12-04T12:43:34.777Z,13.43
2022-12-04T12:46:20.869Z,12.90
2022-12-04T12:48:48.246Z,12.20
2022-12-04T12:51:33.801Z,13.25
2022-12-04T12:54:13.238Z,12.95
2022-12-04T12:56:49.170Z,13.48
2022-12-04T12:59:20.101Z,12.68
2022-12-04T13:01:50.005Z,11.63
2022-12-04T13:04:31.031Z,12.95
2022-12-04T13:07:16.038Z,12.27
2022-12-04T13:09:45.665Z,13.00
2022-12-04T13:12:15.429Z,13.40
2022-12-04T13:14:48.660Z,12.95
2022-12-04T13:17:45.858Z,12.68
2022-12-04T13:20:19.566Z,13.63
2022-12-04T13:22:56.439Z,12.88
2022-12-04T13:25:31.496Z,12.18
2022-12-04T13:28:17.495Z,12.00
2022-12-04T13:31:01.088Z,12.70
2022-12-04T13:33:40.764Z,12.80
2022-12-04T13:36:12.462Z,11.75
2022-12-04T13:38:39.802Z,12.45
2022-12-04T13:41:08.401Z,13.27
2022-12-04T13:43:37.543Z,12.55
2022-12-04T13:46:23.799Z,12.00
2022-12-04T13:48:51.154Z,12.75
2022-12-04T13:51:21.168Z,12.13
2022-12-04T13:53:48.751Z,12.30
2022-12-04T13:56:26.175Z,11.75
2022-12-04T13:59:19.887Z,11.45
2022-12-04T14:01:49.191Z,11.95
2022-12-04T14:04:35.230Z,12.25
2022-12-04T14:07:03.927Z,10.82
2022-12-04T14:09:36.923Z,12.68
2022-12-04T14:12:05.716Z,11.50
2022-12-04T14:14:39.536Z,13.25
2022-12-04T14:17:18.361Z,12.38
2022-12-04T14:19:47.163Z,12.68
2022-12-04T14:22:33.813Z,12.23
2022-12-04T14:25:09.050Z,12.27
2022-12-04T14:27:42.656Z,12.32
2022-12-04T14:30:23.473Z,13.00
2022-12-04T14:32:53.343Z,12.50
2022-12-04T14:35:25.490Z,12.27
2022-12-04T14:37:52.753Z,13.07
2022-12-04T14:40:23.124Z,13.70
2022-12-04T14:42:51.114Z,12.65
2022-12-04T14:45:51.053Z,12.32
2022-12-04T14:48:31.426Z,13.65
2022-12-04T14:51:09.217Z,14.27
2022-12-04T14:53:48.236Z,17.15
2022-12-04T14:56:15.481Z,13.30
2022-12-04T14:58:43.282Z,14.15
2022-12-04T15:01:26.897Z,13.95
2022-12-04T15:03:57.971Z,14.27
2022-12-04T15:06:30.264Z,14.23
2022-12-04T15:09:17.745Z,17.45
2022-12-04T15:12:14.263Z,15.30
2022-12-04T15:14:48.810Z,15.20
2022-12-04T15:17:17.243Z,14.63
2022-12-04T15:19:44.720Z,18.15
2022-12-04T15:22:32.337Z,16.13
2022-12-04T15:24:59.918Z,14.95
2022-12-04T15:27:32.349Z,16.17
2022-12-04T15:30:01.834Z,16.40
2022-12-04T15:32:30.361Z,16.90
2022-12-04T15:35:05.908Z,18.05
2022-12-04T15:37:33.434Z,18.08
2022-12-04T15:40:01.042Z,17.33
2022-12-04T15:42:29.862Z,17.58
2022-12-04T15:45:01.685Z,17.02
2022-12-04T15:47:30.870Z,18.17
2022-12-04T15:50:08.691Z,18.60
2022-12-04T15:52:36.530Z,17.67
2022-12-04T15:55:09.429Z,19.05
2022-12-04T15:57:41.409Z,18.27
2022-12-04T16:00:23.405Z,17.95
2022-12-04T16:02:51.279Z,19.15
2022-12-04T16:05:21.475Z,20.83
2022-12-04T16:07:53.110Z,19.42
2022-12-04T16:10:23.782Z,20.52
2022-12-04T16:12:55.271Z,19.85
2022-12-04T16:15:23.734Z,20.23
2022-12-04T16:17:51.210Z,19.65
2022-12-04T16:20:19.203Z,19.03
2022-12-04T16:22:47.908Z,20.60
2022-12-04T16:25:15.546Z,20.10
2022-12-04T16:27:42.774Z,20.02
2022-12-04T16:30:10.825Z,20.70
2022-12-04T16:32:38.079Z,19.97
2022-12-04T16:35:05.533Z,22.02
2022-12-04T16:37:32.939Z,18.60
2022-12-04T16:40:00.317Z,20.92
2022-12-04T16:42:29.900Z,20.35
2022-12-04T16:44:57.460Z,20.45
2022-12-04T16:47:25.054Z,19.92
2022-12-04T16:49:53.469Z,19.45
2022-12-04T16:52:20.960Z,21.02
2022-12-04T16:54:48.309Z,20.08
2022-12-04T16:57:15.929Z,20.53
2022-12-04T16:59:43.629Z,19.52
2022-12-04T17:02:15.884Z,21.23
2022-12-04T17:04:43.272Z,20.05
2022-12-04T17:07:10.925Z,20.20
2022-12-04T17:09:38.147Z,19.83
2022-12-04T17:12:05.503Z,20.58
2022-12-04T17:14:32.839Z,19.92
2022-12-04T17:17:00.085Z,18.98
2022-12-04T17:19:27.460Z,19.77
2022-12-04T17:21:54.720Z,20.48
2022-12-04T17:24:21.998Z,20.38
2022-12-04T17:26:49.252Z,19.80
2022-12-04T17:29:16.532Z,19.65
2022-12-04T17:31:43.876Z,19.65
2022-12-04T17:34:11.227Z,20.67
2022-12-04T17:36:38.556Z,21.70
2022-12-04T17:39:07.380Z,21.83
2022-12-04T17:41:34.756Z,22.17
2022-12-04T17:44:02.075Z,20.33
2022-12-04T17:46:29.556Z,20.30
2022-12-04T17:48:59.574Z,21.30
2022-12-04T17:51:29.986Z,20.15
2022-12-04T17:53:57.270Z,22.23
2022-12-04T17:56:24.869Z,21.52
2022-12-04T17:58:52.453Z,21.97
2022-12-04T18:01:21.734Z,20.10
2022-12-04T18:03:53.250Z,20.30
2022-12-04T18:06:22.156Z,19.75
2022-12-04T18:08:50.447Z,19.67
2022-12-04T18:11:20.768Z,19.15
2022-12-04T18:13:55.132Z,18.27
2022-12-04T18:16:22.699Z,18.70
2022-12-04T18:18:50.854Z,19.42
2022-12-04T18:21:18.153Z,18.05
2022-12-04T18:23:45.978Z,18.75
2022-12-04T18:26:18.070Z,18.00
2022-12-04T18:28:45.883Z,18.55
2022-12-04T18:31:13.797Z,18.20
2022-12-04T18:33:42.331Z,18.33
2022-12-04T18:36:13.829Z,18.95
2022-12-04T18:38:41.192Z,20.90
2022-12-04T18:41:10.360Z,17.30
2022-12-04T18:43:39.402Z,19.40
2022-12-04T18:46:08.241Z,18.60
2022-12-04T18:48:35.961Z,18.85
2022-12-04T18:51:15.009Z,17.55
2022-12-04T18:53:42.390Z,19.70
2022-12-04T18:56:09.708Z,19.08
2022-12-04T18:58:36.987Z,20.17
2022-12-04T19:01:08.211Z,19.33
2022-12-04T19:03:36.081Z,18.48
2022-12-04T19:06:03.436Z,18.60
2022-12-04T19:08:34.943Z,18.23
2022-12-04T19:11:07.910Z,18.20
2022-12-04T19:13:35.536Z,17.90
2022-12-04T19:16:03.099Z,18.48
2022-12-04T19:18:31.061Z,18.77
2022-12-04T19:20:58.428Z,19.48
2022-12-04T19:23:25.719Z,18.23
2022-12-04T19:25:59.800Z,20.00
2022-12-04T19:28:30.132Z,20.50
2022-12-04T19:30:57.507Z,18.02
2022-12-04T19:33:25.161Z,17.63
2022-12-04T19:36:00.193Z,20.02
2022-12-04T19:38:27.614Z,19.23
2022-12-04T19:41:04.126Z,19.73
2022-12-04T19:43:31.461Z,19.30
2022-12-04T19:45:58.809Z,20.27
2022-12-04T19:48:26.190Z,19.98
2022-12-04T19:50:53.588Z,20.65
2022-12-04T19:53:20.855Z,18.88
2022-12-04T19:55:48.159Z,20.17
2022-12-04T19:58:15.630Z,20.27
2022-12-04T20:00:42.920Z,20.33
2022-12-04T20:03:10.274Z,22.48
2022-12-04T20:05:37.795Z,21.40
2022-12-04T20:10:33.094Z,23.95
2022-12-04T20:13:00.385Z,22.85
2022-12-04T20:15:27.688Z,24.25
2022-12-04T20:17:55.110Z,21.83
2022-12-04T20:20:23.052Z,23.10
2022-12-04T20:22:50.341Z,23.20
2022-12-04T20:25:17.675Z,23.42
2022-12-04T20:27:44.965Z,24.30
2022-12-04T20:30:12.377Z,23.35
2022-12-04T20:32:39.689Z,24.80
2022-12-04T20:35:07.247Z,25.27
2022-12-04T20:37:35.924Z,24.48
2022-12-04T20:40:04.684Z,24.30
2022-12-04T20:42:33.767Z,22.95
2022-12-04T20:45:01.258Z,24.52
2022-12-04T20:47:28.546Z,24.58
2022-12-04T20:49:56.689Z,23.75
2022-12-04T20:52:24.158Z,23.58
2022-12-04T20:54:51.416Z,23.15
2022-12-04T20:57:18.953Z,21.23
2022-12-04T20:59:46.244Z,22.30
2022-12-04T21:02:13.700Z,21.95
2022-12-04T21:04:41.185Z,23.33
2022-12-04T21:07:08.512Z,21.50
2022-12-04T21:09:36.046Z,23.05
2022-12-04T21:12:03.765Z,21.38
2022-12-04T21:14:50.802Z,20.95
2022-12-04T21:17:19.426Z,22.73
2022-12-04T21:19:47.767Z,22.85
2022-12-04T21:22:15.565Z,23.70
2022-12-04T21:24:43.107Z,23.02
2022-12-04T21:27:14.549Z,21.42
2022-12-04T21:29:46.307Z,22.45
2022-12-04T21:32:22.010Z,22.55
2022-12-04T21:34:50.062Z,23.35
2022-12-04T21:37:17.864Z,22.38
2022-12-04T21:39:45.406Z,22.35
2022-12-04T21:42:30.935Z,21.40
2022-12-04T21:44:58.826Z,22.42
2022-12-04T21:47:27.269Z,22.73
2022-12-04T21:49:54.767Z,22.83
2022-12-04T21:52:22.900Z,23.10
2022-12-04T21:54:54.038Z,22.80
2022-12-04T21:57:22.067Z,24.10
2022-12-04T21:59:51.159Z,21.85
2022-12-04T22:02:18.446Z,23.30
2022-12-04T22:04:45.778Z,21.58
2022-12-04T22:07:13.052Z,22.10
2022-12-04T22:09:40.353Z,23.30
2022-12-04T22:12:33.281Z,23.42
2022-12-04T22:14:55.106Z,21.95
2022-12-04T22:17:22.426Z,23.63
2022-12-04T22:19:49.780Z,20.83
2022-12-04T22:22:17.123Z,23.38
2022-12-04T22:24:44.391Z,22.42
2022-12-04T22:27:14.991Z,22.65
2022-12-04T22:29:50.335Z,23.73
2022-12-04T22:32:18.488Z,23.17
2022-12-04T22:34:45.704Z,22.75
2022-12-04T22:37:12.949Z,20.52
2022-12-04T22:39:40.233Z,22.63
2022-12-04T22:42:07.572Z,22.05
2022-12-04T22:44:34.862Z,22.33
2022-12-04T22:47:02.257Z,22.63
2022-12-04T22:49:29.530Z,35.13
2022-12-04T22:51:56.754Z,27.42
2022-12-04T22:54:24.077Z,23.65
2022-12-04T22:56:51.329Z,21.00
2022-12-04T22:59:18.568Z,23.38
2022-12-04T23:01:45.773Z,22.02
2022-12-04T23:04:13.065Z,23.15
2022-12-04T23:06:40.346Z,22.17
2022-12-04T23:09:09.858Z,22.92
2022-12-04T23:11:37.706Z,20.73
2022-12-04T23:14:05.943Z,21.17
2022-12-04T23:16:35.111Z,21.70
2022-12-04T23:19:02.708Z,21.20
2022-12-04T23:21:29.999Z,21.52
2022-12-04T23:23:57.765Z,21.25
2022-12-04T23:26:27.045Z,22.83
2022-12-04T23:28:54.297Z,23.33
2022-12-04T23:31:21.588Z,23.08
2022-12-04T23:33:48.897Z,21.45
2022-12-04T23:36:16.243Z,19.50
2022-12-04T23:38:44.507Z,21.27
2022-12-04T23:41:12.941Z,22.02
2022-12-04T23:43:40.656Z,22.45
2022-12-04T23:46:11.351Z,20.17
2022-12-04T23:48:39.252Z,20.88
2022-12-04T23:51:07.084Z,19.95
2022-12-04T23:53:34.425Z,20.23
2022-12-04T23:56:05.164Z,19.83
2022-12-04T23:58:33.083Z,20.73
